Time;durP1;ratioP1;P1;durP2;ratioP2;P2;SDS_P1;SDS_P2;PMS_P1;PMS_P2;Temp;Humidity;BMP_temperature;BMP_pressure;BME280_temperature;BME280_humidity;BME280_pressure;Samples;Min_cycle;Max_cycle;Signal;HPM_P1;HPM_P2
2022/01/09 00:01:06;;;;;;;10.07;2.78;;;;;;;11.30;45.35;99571.31;5094015;28;20027;-77
2022/01/09 00:03:32;;;;;;;9.77;2.30;;;;;;;11.49;44.75;99565.22;5094069;28;20034;-80
2022/01/09 00:05:57;;;;;;;7.80;2.67;;;;;;;11.48;44.66;99567.13;5093990;28;20024;-77
2022/01/09 00:08:24;;;;;;;8.90;2.10;;;;;;;11.47;44.68;99567.47;5093933;28;20035;-77
2022/01/09 00:10:51;;;;;;;6.45;2.40;;;;;;;11.43;44.65;99581.06;5093927;28;20102;-75
2022/01/09 00:13:17;;;;;;;11.77;2.45;;;;;;;11.17;45.42;99588.88;5092070;28;20073;-77
2022/01/09 00:15:43;;;;;;;11.35;3.33;;;;;;;11.35;45.06;99580.06;5093262;28;20024;-76
2022/01/09 00:18:09;;;;;;;10.48;2.72;;;;;;;11.55;44.62;99580.22;5093746;28;20107;-76
2022/01/09 00:20:34;;;;;;;4.55;1.95;;;;;;;11.30;44.98;99571.31;5093746;28;20064;-76
2022/01/09 00:23:00;;;;;;;8.52;2.33;;;;;;;11.19;45.57;99594.81;5093672;28;20035;-75
2022/01/09 00:25:28;;;;;;;8.15;2.55;;;;;;;11.14;45.64;99601.28;5093576;28;20032;-76
2022/01/09 00:27:54;;;;;;;12.48;3.50;;;;;;;11.10;45.34;99592.97;5093659;28;20214;-81
2022/01/09 00:30:22;;;;;;;6.70;1.98;;;;;;;11.36;45.00;99591.81;5092043;28;20056;-78
2022/01/09 00:32:49;;;;;;;8.63;2.67;;;;;;;11.36;44.82;99587.13;5093490;28;20034;-77
2022/01/09 00:35:16;;;;;;;8.65;2.15;;;;;;;11.39;44.80;99594.63;5093474;28;20024;-76
2022/01/09 00:37:42;;;;;;;9.18;2.17;;;;;;;11.23;45.19;99590.22;5093422;28;20020;-78
2022/01/09 00:40:10;;;;;;;13.95;2.53;;;;;;;11.09;45.53;99590.59;5093327;28;20493;-76
2022/01/09 00:42:36;;;;;;;8.20;3.00;;;;;;;11.03;45.61;99581.84;5093245;28;20165;-76
2022/01/09 00:45:04;;;;;;;10.65;2.88;;;;;;;11.28;45.06;99574.38;5093190;28;20024;-78
2022/01/09 00:47:29;;;;;;;11.13;2.92;;;;;;;11.22;45.26;99564.03;5093285;28;20020;-76
2022/01/09 00:49:55;;;;;;;9.13;3.10;;;;;;;10.78;46.53;99578.31;5093099;28;20024;-76
2022/01/09 00:52:21;;;;;;;12.52;3.53;;;;;;;11.17;45.36;99573.25;5093139;28;20103;-80
2022/01/09 00:54:46;;;;;;;12.40;3.05;;;;;;;11.22;45.33;99581.22;5091762;28;20035;-77
2022/01/09 00:57:12;;;;;;;8.57;4.10;;;;;;;11.34;45.00;99577.69;5093052;28;20031;-76
2022/01/09 00:59:38;;;;;;;16.05;4.25;;;;;;;11.05;45.74;99585.03;5093050;28;20047;-76
2022/01/09 01:02:04;;;;;;;14.25;3.10;;;;;;;10.92;46.22;99585.38;5092999;28;20020;-75
2022/01/09 01:04:29;;;;;;;10.88;3.30;;;;;;;10.57;47.57;99596.75;5092990;28;20031;-78
2022/01/09 01:06:55;;;;;;;14.52;3.58;;;;;;;10.68;47.33;99608.84;5092919;28;20085;-76
2022/01/09 01:09:23;;;;;;;14.30;3.72;;;;;;;10.84;46.63;99606.22;5092818;28;20469;-76
2022/01/09 01:11:49;;;;;;;14.13;3.75;;;;;;;10.91;46.49;99609.19;5092830;28;20052;-79
2022/01/09 01:14:15;;;;;;;13.88;3.47;;;;;;;11.08;46.00;99602.66;5092932;28;20027;-76
2022/01/09 01:16:41;;;;;;;9.95;2.97;;;;;;;11.13;46.28;99598.91;5092860;28;20024;-75
2022/01/09 01:19:06;;;;;;;12.73;2.83;;;;;;;11.22;45.95;99589.44;5092763;28;20020;-77
2022/01/09 01:21:33;;;;;;;8.85;2.50;;;;;;;10.97;46.23;99594.16;5092721;28;20123;-77
2022/01/09 01:23:59;;;;;;;8.25;2.78;;;;;;;11.46;45.17;99585.03;5092546;28;20028;-75
2022/01/09 01:26:24;;;;;;;14.55;3.83;;;;;;;11.12;45.92;99600.84;5092650;28;20035;-76
2022/01/09 01:28:50;;;;;;;10.60;3.20;;;;;;;11.10;46.02;99590.25;5092413;28;20044;-76
2022/01/09 01:31:16;;;;;;;9.75;3.33;;;;;;;11.05;46.13;99585.03;5091349;28;20560;-76
2022/01/09 01:33:42;;;;;;;7.88;2.22;;;;;;;11.10;46.05;99590.25;5092580;28;20048;-81
2022/01/09 01:36:08;;;;;;;12.48;3.83;;;;;;;11.25;45.67;99596.94;5092591;28;20025;-75
2022/01/09 01:38:34;;;;;;;11.90;3.42;;;;;;;11.11;45.86;99589.13;5092590;28;20528;-76
2022/01/09 01:41:01;;;;;;;10.65;3.10;;;;;;;11.07;45.91;99599.13;5092573;28;20024;-75
2022/01/09 01:43:27;;;;;;;13.57;2.97;;;;;;;11.11;45.97;99597.31;5092483;28;20059;-76
2022/01/09 01:45:52;;;;;;;7.60;2.60;;;;;;;10.85;46.72;99607.81;5092424;28;20047;-76
2022/01/09 01:48:18;;;;;;;11.43;2.35;;;;;;;11.23;45.66;99609.38;5092478;28;20016;-75
2022/01/09 01:50:46;;;;;;;6.75;2.25;;;;;;;11.08;45.90;99603.47;5092332;28;20031;-76
2022/01/09 01:53:18;;;;;;;10.05;2.70;;;;;;;11.39;44.96;99591.09;5092447;28;20442;-76
2022/01/09 01:55:48;;;;;;;10.35;3.33;;;;;;;11.04;46.06;99604.50;5092408;28;20039;-75
2022/01/09 01:58:13;;;;;;;6.45;2.25;;;;;;;11.24;45.33;99600.03;5092414;28;20020;-79
2022/01/09 02:00:41;;;;;;;8.23;3.33;;;;;;;11.28;45.28;99607.19;5092385;28;20488;-76
2022/01/09 02:03:09;;;;;;;9.95;2.42;;;;;;;11.35;45.02;99606.63;5092363;28;20035;-76
2022/01/09 02:05:35;;;;;;;13.55;3.13;;;;;;;11.38;45.09;99597.72;5092305;28;20073;-76
2022/01/09 02:08:02;;;;;;;8.63;2.35;;;;;;;11.21;45.44;99611.66;5092289;28;20028;-76
2022/01/09 02:10:28;;;;;;;12.18;2.47;;;;;;;11.27;45.21;99615.75;5092158;28;20472;-76
2022/01/09 02:12:56;;;;;;;10.90;2.17;;;;;;;11.13;45.66;99618.84;5092185;28;20028;-76
2022/01/09 02:15:33;;;;;;;10.38;2.33;;;;;;;11.19;45.42;99613.94;5092236;28;20027;-76
2022/01/09 02:18:01;;;;;;;6.68;1.75;;;;;;;11.23;45.36;99614.84;5092263;28;20020;-76
2022/01/09 02:20:27;;;;;;;8.55;1.95;;;;;;;11.28;45.30;99623.59;5092150;28;20032;-76
2022/01/09 02:22:52;;;;;;;14.95;2.30;;;;;;;11.28;45.67;99628.28;5092246;28;20485;-76
2022/01/09 02:25:18;;;;;;;16.30;4.43;;;;;;;11.45;45.03;99638.97;5090707;28;20168;-80
2022/01/09 02:27:44;;;;;;;8.98;2.03;;;;;;;11.53;44.91;99654.44;5090770;28;20038;-76
2022/01/09 02:30:10;;;;;;;7.95;1.88;;;;;;;11.31;45.45;99658.47;5090543;28;20052;-75
2022/01/09 02:32:36;;;;;;;5.70;2.28;;;;;;;11.18;45.83;99658.81;5092308;28;20027;-75
2022/01/09 02:35:02;;;;;;;6.32;1.90;;;;;;;11.40;45.29;99666.53;5091996;28;20456;-77
2022/01/09 02:37:28;;;;;;;5.80;1.63;;;;;;;11.46;45.05;99650.69;5094164;28;20020;-77
2022/01/09 02:39:53;;;;;;;7.05;2.00;;;;;;;11.63;44.60;99672.31;5095635;28;20070;-79
2022/01/09 02:42:22;;;;;;;9.13;2.10;;;;;;;11.20;45.83;99664.75;5094369;28;20036;-76
2022/01/09 02:44:48;;;;;;;9.23;1.70;;;;;;;11.54;44.91;99669.72;5095610;28;20402;-76
2022/01/09 02:47:14;;;;;;;8.57;2.28;;;;;;;11.51;44.53;99666.88;5095578;28;20028;-76
2022/01/09 02:49:45;;;;;;;12.85;3.28;;;;;;;11.71;44.46;99671.38;5095432;28;20060;-76
2022/01/09 02:52:11;;;;;;;6.68;2.00;;;;;;;11.75;44.24;99671.50;5095484;28;20036;-77
2022/01/09 02:57:21;;;;;;;11.77;2.70;;;;;;;11.66;44.61;99666.94;5095394;28;20059;-76
2022/01/09 02:59:47;;;;;;;10.40;2.75;;;;;;;11.77;44.41;99666.47;5095308;28;20051;-77
2022/01/09 03:02:19;;;;;;;8.68;2.95;;;;;;;11.88;43.82;99648.44;5095234;28;20054;-76
2022/01/09 03:04:45;;;;;;;7.82;2.45;;;;;;;11.83;44.29;99648.69;5095225;28;20064;-76
2022/01/09 03:07:11;;;;;;;5.95;2.08;;;;;;;11.91;44.21;99640.31;5095142;28;20439;-77
2022/01/09 03:09:37;;;;;;;12.15;3.10;;;;;;;12.03;44.12;99646.91;5095012;28;20070;-75
2022/01/09 03:12:04;;;;;;;9.05;2.10;;;;;;;12.01;44.10;99644.50;5095045;28;20111;-80
2022/01/09 03:14:30;;;;;;;14.00;2.65;;;;;;;12.03;44.14;99642.22;5095042;28;20024;-76
2022/01/09 03:16:55;;;;;;;11.45;2.80;;;;;;;12.02;44.08;99634.38;5094909;28;20539;-78
2022/01/09 03:19:21;;;;;;;13.85;3.00;;;;;;;12.04;43.97;99632.88;5094997;28;20463;-75
2022/01/09 03:21:47;;;;;;;17.25;3.28;;;;;;;12.09;44.00;99638.09;5094906;28;20077;-76
2022/01/09 03:24:12;;;;;;;8.23;2.28;;;;;;;11.96;44.11;99639.28;5094787;28;20036;-80
2022/01/09 03:26:38;;;;;;;8.23;2.92;;;;;;;11.75;44.73;99638.66;5094755;28;20027;-78
2022/01/09 03:29:03;;;;;;;14.00;2.80;;;;;;;11.46;45.20;99645.22;5094427;28;20097;-78
2022/01/09 03:31:29;;;;;;;14.27;3.22;;;;;;;11.60;44.97;99643.72;5094636;28;20032;-76
2022/01/09 03:33:55;;;;;;;11.18;2.60;;;;;;;11.65;44.83;99629.78;5094639;28;20667;-75
2022/01/09 03:36:20;;;;;;;12.43;2.60;;;;;;;11.83;44.36;99626.78;5094608;28;20382;-75
2022/01/09 03:38:47;;;;;;;13.20;2.55;;;;;;;11.74;44.65;99632.38;5093271;28;20066;-76
2022/01/09 03:41:13;;;;;;;6.60;2.60;;;;;;;11.78;44.42;99633.25;5094423;28;20397;-76
2022/01/09 03:43:39;;;;;;;7.63;2.55;;;;;;;11.75;44.71;99655.88;5094422;28;20077;-75
2022/01/09 03:46:04;;;;;;;10.65;2.42;;;;;;;11.86;44.30;99642.50;5094389;28;20408;-79
2022/01/09 03:48:31;;;;;;;10.02;2.67;;;;;;;11.92;44.16;99638.38;5094284;28;20028;-75
2022/01/09 03:50:57;;;;;;;8.75;2.40;;;;;;;11.75;44.37;99642.19;5094286;28;20103;-75
2022/01/09 03:53:23;;;;;;;8.27;2.53;;;;;;;11.78;44.50;99646.94;5094239;28;20532;-79
2022/01/09 03:55:49;;;;;;;9.75;2.50;;;;;;;11.68;44.60;99631.81;5094199;28;20032;-75
2022/01/09 03:58:14;;;;;;;14.07;4.55;;;;;;;11.88;44.18;99629.28;5094162;28;20028;-80
2022/01/09 04:00:40;;;;;;;13.18;2.38;;;;;;;11.84;43.98;99617.44;5094103;28;20062;-76
2022/01/09 04:03:06;;;;;;;5.97;2.72;;;;;;;11.79;44.30;99615.72;5094130;28;20541;-75
2022/01/09 04:05:31;;;;;;;11.10;2.45;;;;;;;11.62;44.83;99621.47;5094213;28;20024;-81
2022/01/09 04:07:57;;;;;;;10.70;2.33;;;;;;;11.73;44.61;99639.00;5093992;28;20032;-75
2022/01/09 04:10:25;;;;;;;12.52;2.65;;;;;;;11.88;44.26;99632.03;5093909;28;20035;-76
2022/01/09 04:12:58;;;;;;;12.25;2.30;;;;;;;11.73;44.62;99640.94;5093830;28;20528;-77
2022/01/09 04:15:24;;;;;;;11.40;3.03;;;;;;;11.84;44.35;99639.31;5092585;28;20027;-78
2022/01/09 04:17:54;;;;;;;11.60;2.20;;;;;;;11.73;44.43;99644.47;5093777;28;20073;-76
2022/01/09 04:20:23;;;;;;;10.73;3.03;;;;;;;11.79;44.32;99647.75;5093769;28;20074;-75
2022/01/09 04:22:49;;;;;;;14.30;3.75;;;;;;;11.73;44.71;99643.69;5093695;28;20028;-80
2022/01/09 04:25:15;;;;;;;6.47;1.83;;;;;;;11.68;44.80;99644.72;5093717;28;20523;-76
2022/01/09 04:27:42;;;;;;;9.90;3.42;;;;;;;11.50;45.41;99654.34;5093604;28;20012;-75
2022/01/09 04:30:09;;;;;;;10.75;2.67;;;;;;;11.76;44.73;99632.81;5091959;28;20051;-78
2022/01/09 04:32:35;;;;;;;9.30;2.67;;;;;;;11.44;45.78;99644.78;5093545;28;20031;-76
2022/01/09 04:35:01;;;;;;;10.07;2.53;;;;;;;11.71;45.09;99635.78;5093407;28;20024;-75
2022/01/09 04:37:27;;;;;;;10.90;2.65;;;;;;;11.79;44.95;99632.16;5093408;28;20057;-75
2022/01/09 04:39:54;;;;;;;4.97;1.90;;;;;;;11.71;44.96;99643.22;5093326;28;20055;-81
2022/01/09 04:42:25;;;;;;;5.20;1.83;;;;;;;12.07;44.46;99647.78;5093320;28;20032;-81
2022/01/09 04:44:50;;;;;;;8.52;2.60;;;;;;;12.15;44.17;99655.84;5093243;28;20032;-75
2022/01/09 04:47:17;;;;;;;14.25;3.20;;;;;;;12.05;44.43;99644.59;5091983;28;20099;-75
2022/01/09 04:49:45;;;;;;;8.55;2.05;;;;;;;12.15;44.26;99647.63;5093070;28;20067;-76
2022/01/09 04:52:15;;;;;;;5.20;1.48;;;;;;;12.20;44.00;99639.16;5093248;28;20020;-76
2022/01/09 04:54:41;;;;;;;5.47;1.70;;;;;;;12.32;43.85;99632.84;5093086;28;20126;-75
2022/01/09 04:57:07;;;;;;;9.00;1.73;;;;;;;12.26;43.85;99653.41;5093086;28;20113;-76
2022/01/09 04:59:33;;;;;;;12.32;3.80;;;;;;;12.22;43.93;99644.28;5092612;28;20078;-77
2022/01/09 05:01:58;;;;;;;11.27;3.22;;;;;;;12.32;43.86;99634.75;5092906;28;20024;-82
2022/01/09 05:04:24;;;;;;;11.13;2.22;;;;;;;11.99;44.59;99643.25;5091741;28;20088;-76
2022/01/09 05:06:50;;;;;;;8.85;2.25;;;;;;;12.18;44.12;99646.16;5091366;28;20021;-76
2022/01/09 05:09:15;;;;;;;9.13;2.17;;;;;;;12.10;44.14;99631.47;5092847;28;20468;-77
2022/01/09 05:11:41;;;;;;;10.32;3.17;;;;;;;12.20;44.32;99630.16;5091545;28;20032;-80
2022/01/09 05:14:06;;;;;;;10.43;2.20;;;;;;;12.05;44.86;99631.72;5092907;28;20024;-76
2022/01/09 05:16:32;;;;;;;10.18;2.05;;;;;;;12.27;44.46;99635.03;5092778;28;20035;-75
2022/01/09 05:19:04;;;;;;;9.93;2.38;;;;;;;12.32;44.47;99640.22;5092759;28;20434;-75
2022/01/09 05:21:29;;;;;;;9.10;2.67;;;;;;;12.46;44.06;99655.09;5092923;28;20474;-77
2022/01/09 05:23:55;;;;;;;12.63;3.25;;;;;;;12.59;43.77;99666.78;5091374;28;20045;-78
2022/01/09 05:26:20;;;;;;;13.40;2.88;;;;;;;12.70;43.50;99659.66;5086088;28;20435;-77
2022/01/09 05:28:46;;;;;;;8.45;2.80;;;;;;;12.77;43.39;99643.38;5092203;28;20055;-76
2022/01/09 05:31:12;;;;;;;15.68;3.97;;;;;;;12.79;43.40;99659.47;5092571;28;20028;-76
2022/01/09 05:33:37;;;;;;;15.10;5.20;;;;;;;12.64;43.92;99661.06;5092637;28;20051;-75
2022/01/09 05:36:03;;;;;;;9.50;3.60;;;;;;;12.57;44.21;99652.66;5092624;28;20154;-75
2022/01/09 05:38:29;;;;;;;8.80;2.22;;;;;;;12.61;44.21;99645.31;5092584;28;20028;-76
2022/01/09 05:40:54;;;;;;;11.38;2.80;;;;;;;12.51;44.54;99659.53;5092610;28;20067;-76
2022/01/09 05:43:20;;;;;;;9.43;3.70;;;;;;;12.76;43.87;99649.22;5092512;28;20027;-77
2022/01/09 05:45:46;;;;;;;16.55;3.13;;;;;;;12.64;44.32;99660.28;5092539;28;20028;-77
2022/01/09 05:48:11;;;;;;;16.60;3.28;;;;;;;12.81;43.70;99648.16;5092513;28;20421;-76
2022/01/09 05:50:38;;;;;;;17.60;3.75;;;;;;;12.64;44.22;99649.31;5092402;28;20070;-76
2022/01/09 05:53:03;;;;;;;14.48;2.85;;;;;;;12.65;44.21;99650.91;5092454;28;20028;-76
2022/01/09 05:55:30;;;;;;;14.60;4.30;;;;;;;12.82;43.75;99663.44;5092405;28;20024;-75
2022/01/09 05:57:56;;;;;;;14.07;2.80;;;;;;;12.69;44.13;99682.72;5092404;28;20023;-75
2022/01/09 06:00:22;;;;;;;9.30;2.58;;;;;;;12.89;43.57;99675.38;5092407;28;20537;-75
2022/01/09 06:02:47;;;;;;;14.90;3.53;;;;;;;12.85;43.67;99676.47;5092312;28;20108;-76
2022/01/09 06:05:13;;;;;;;13.02;3.20;;;;;;;12.94;43.64;99668.84;5092405;28;20031;-76
2022/01/09 06:07:41;;;;;;;11.85;3.28;;;;;;;13.16;43.11;99670.97;5091038;28;20035;-75
2022/01/09 06:10:08;;;;;;;12.05;2.85;;;;;;;13.18;43.04;99663.16;5092234;28;20059;-75
2022/01/09 06:12:34;;;;;;;18.45;4.00;;;;;;;13.11;43.46;99662.19;5095092;28;20498;-76
2022/01/09 06:15:00;;;;;;;18.20;3.80;;;;;;;13.24;43.16;99656.28;5096191;28;20031;-76
2022/01/09 06:17:25;;;;;;;15.93;3.88;;;;;;;13.17;43.45;99667.06;5096135;28;20035;-75
2022/01/09 06:19:52;;;;;;;15.90;3.58;;;;;;;13.27;42.92;99674.75;5094778;28;20090;-75
2022/01/09 06:22:18;;;;;;;15.43;3.80;;;;;;;13.36;42.83;99674.56;5096064;28;20039;-77
2022/01/09 06:24:46;;;;;;;15.00;3.33;;;;;;;12.96;43.81;99661.06;5096229;28;20024;-75
2022/01/09 06:27:13;;;;;;;14.88;4.22;;;;;;;13.03;43.65;99674.94;5095967;28;20363;-76
2022/01/09 06:29:39;;;;;;;13.65;3.10;;;;;;;13.03;43.88;99656.53;5095601;28;20371;-76
2022/01/09 06:32:06;;;;;;;15.82;4.00;;;;;;;12.88;44.21;99640.09;5094567;28;20081;-75
2022/01/09 06:34:31;;;;;;;13.75;3.40;;;;;;;12.74;44.66;99640.53;5095718;28;20137;-75
2022/01/09 06:36:57;;;;;;;12.10;4.25;;;;;;;13.00;44.05;99637.28;5095746;28;20073;-79
2022/01/09 06:39:23;;;;;;;12.40;4.20;;;;;;;12.84;44.29;99653.72;5095740;28;20679;-75
2022/01/09 06:41:49;;;;;;;17.70;4.10;;;;;;;12.83;44.32;99656.81;5094428;28;20043;-75
2022/01/09 06:44:15;;;;;;;9.93;3.40;;;;;;;13.20;43.37;99658.13;5095617;28;20023;-75
2022/01/09 06:46:42;;;;;;;10.18;2.65;;;;;;;13.15;43.74;99663.88;5095659;28;20632;-75
2022/01/09 06:49:07;;;;;;;12.63;2.95;;;;;;;13.10;43.75;99652.38;5094129;28;20040;-79
2022/01/09 06:51:33;;;;;;;15.40;2.65;;;;;;;13.27;43.40;99665.75;5094176;28;20027;-77
2022/01/09 06:53:59;;;;;;;14.43;4.78;;;;;;;13.18;43.53;99667.84;5095409;28;20379;-81
2022/01/09 06:56:24;;;;;;;17.33;4.50;;;;;;;13.18;43.58;99663.16;5095418;28;20020;-75
2022/01/09 06:58:50;;;;;;;15.77;3.63;;;;;;;13.24;43.68;99660.97;5095396;28;20371;-76
2022/01/09 07:01:16;;;;;;;17.63;3.95;;;;;;;12.99;44.05;99660.34;5095401;28;20032;-78
2022/01/09 07:03:42;;;;;;;15.15;3.17;;;;;;;12.82;44.19;99639.56;5095401;28;20191;-76
2022/01/09 07:06:08;;;;;;;19.98;4.25;;;;;;;13.12;43.76;99664.56;5095186;28;20024;-75
2022/01/09 07:08:34;;;;;;;14.77;3.17;;;;;;;13.12;43.82;99675.53;5095128;28;20378;-75
2022/01/09 07:11:01;;;;;;;22.45;4.53;;;;;;;13.10;43.59;99658.66;5094968;28;20437;-75
2022/01/09 07:13:27;;;;;;;17.17;3.35;;;;;;;13.13;43.54;99662.63;5095046;28;20069;-77
2022/01/09 07:15:52;;;;;;;27.33;4.28;;;;;;;12.95;44.26;99664.97;5094225;28;20020;-76
2022/01/09 07:18:18;;;;;;;15.75;3.53;;;;;;;13.22;43.45;99672.28;5094404;28;20539;-75
2022/01/09 07:20:44;;;;;;;10.00;2.80;;;;;;;13.19;43.42;99670.22;5094870;28;20036;-78
2022/01/09 07:23:09;;;;;;;14.18;4.25;;;;;;;13.13;43.56;99660.69;5094613;28;20466;-75
2022/01/09 07:25:35;;;;;;;15.77;4.40;;;;;;;12.98;43.98;99670.50;5094627;28;20028;-75
2022/01/09 07:28:02;;;;;;;12.90;3.55;;;;;;;12.94;44.04;99677.06;5094796;28;20391;-75
2022/01/09 07:30:28;;;;;;;12.27;3.67;;;;;;;13.07;43.71;99667.59;5094323;28;20055;-75
2022/01/09 07:32:55;;;;;;;17.08;4.28;;;;;;;13.08;44.00;99669.19;5094745;28;20024;-75
2022/01/09 07:35:21;;;;;;;17.92;3.72;;;;;;;13.17;43.74;99677.25;5094695;28;20056;-75
2022/01/09 07:37:47;;;;;;;18.20;4.55;;;;;;;13.06;43.78;99688.72;5094647;28;20032;-75
2022/01/09 07:40:13;;;;;;;13.88;3.20;;;;;;;13.05;43.77;99675.38;5094578;28;20081;-76
2022/01/09 07:42:39;;;;;;;16.05;3.72;;;;;;;13.01;43.79;99680.78;5094598;28;20150;-75
2022/01/09 07:45:08;;;;;;;15.48;3.72;;;;;;;12.99;43.90;99661.13;5094488;28;20145;-76
2022/01/09 07:47:36;;;;;;;12.20;3.40;;;;;;;12.90;44.18;99668.75;5094480;28;20028;-75
2022/01/09 07:50:04;;;;;;;19.00;4.43;;;;;;;12.41;45.50;99687.47;5094298;28;20026;-76
2022/01/09 07:52:34;;;;;;;17.90;4.80;;;;;;;12.74;44.72;99676.19;5094346;28;20028;-76
2022/01/09 07:55:00;;;;;;;16.45;4.65;;;;;;;12.82;44.51;99666.97;5094361;28;20043;-78
2022/01/09 07:57:25;;;;;;;17.00;3.70;;;;;;;12.84;44.59;99667.41;5094161;28;20109;-81
2022/01/09 07:59:51;;;;;;;13.90;3.13;;;;;;;12.43;45.27;99666.78;5094121;28;20486;-75
2022/01/09 08:02:17;;;;;;;17.02;4.13;;;;;;;12.60;45.12;99676.59;5093925;28;20470;-76
2022/01/09 08:04:42;;;;;;;21.83;3.72;;;;;;;12.08;46.33;99690.44;5094209;28;20466;-80
2022/01/09 08:07:08;;;;;;;14.35;4.30;;;;;;;12.51;45.52;99697.91;5094014;28;20381;-76
2022/01/09 08:09:33;;;;;;;15.93;4.93;;;;;;;12.68;45.02;99703.03;5093883;28;20039;-76
2022/01/09 08:11:59;;;;;;;13.25;4.50;;;;;;;12.56;45.42;99697.66;5093944;28;20509;-75
2022/01/09 08:14:25;;;;;;;15.95;3.63;;;;;;;12.31;46.25;99696.16;5093921;28;20050;-79
2022/01/09 08:16:50;;;;;;;17.92;3.40;;;;;;;12.73;44.87;99710.22;5093894;28;20032;-77
2022/01/09 08:19:16;;;;;;;16.08;3.67;;;;;;;12.73;44.93;99705.53;5093770;28;20032;-76
2022/01/09 08:21:41;;;;;;;31.30;4.47;;;;;;;12.84;44.89;99696.78;5093797;28;20077;-76
2022/01/09 08:24:07;;;;;;;19.08;3.30;;;;;;;12.66;45.15;99696.34;5093745;28;20584;-75
2022/01/09 08:26:33;;;;;;;11.32;3.35;;;;;;;12.72;45.02;99694.94;5093573;28;20051;-77
2022/01/09 08:28:59;;;;;;;19.98;3.78;;;;;;;12.53;45.84;99697.53;5093345;28;20087;-76
2022/01/09 08:31:24;;;;;;;11.23;3.40;;;;;;;12.47;45.92;99706.03;5093642;28;20039;-77
2022/01/09 08:33:50;;;;;;;10.15;3.00;;;;;;;12.42;45.99;99730.16;5092913;28;20027;-76
2022/01/09 08:36:16;;;;;;;10.80;3.00;;;;;;;12.20;46.41;99745.97;5093448;28;20067;-77
2022/01/09 08:38:42;;;;;;;18.70;3.53;;;;;;;12.50;45.83;99726.44;5093516;28;20023;-79
2022/01/09 08:41:08;;;;;;;16.17;4.13;;;;;;;12.74;45.20;99737.28;5093404;28;20020;-77
2022/01/09 08:43:37;;;;;;;12.00;3.33;;;;;;;12.79;44.92;99744.47;5093330;28;20024;-77
2022/01/09 08:46:03;;;;;;;10.63;2.88;;;;;;;12.70;45.37;99747.38;5093352;28;20067;-76
2022/01/09 08:48:28;;;;;;;15.40;3.22;;;;;;;12.87;44.82;99753.66;5093292;28;20550;-76
2022/01/09 08:50:54;;;;;;;15.07;3.42;;;;;;;12.69;45.14;99744.94;5092589;28;20057;-77
2022/01/09 08:53:21;;;;;;;13.98;3.85;;;;;;;12.08;46.88;99748.75;5077853;28;20032;-78
2022/01/09 08:55:47;;;;;;;14.02;3.03;;;;;;;12.41;46.17;99743.03;5087510;28;20043;-75
2022/01/09 08:58:12;;;;;;;7.13;2.17;;;;;;;12.49;46.12;99735.81;5088075;28;20045;-79
2022/01/09 09:00:38;;;;;;;17.83;3.53;;;;;;;12.52;46.09;99739.78;5083152;28;20402;-79
2022/01/09 09:03:04;;;;;;;18.08;4.47;;;;;;;12.53;45.68;99752.34;5091151;28;20028;-78
2022/01/09 09:05:31;;;;;;;18.27;5.47;;;;;;;12.56;46.01;99757.16;5090027;28;20047;-76
2022/01/09 09:07:58;;;;;;;11.38;4.35;;;;;;;12.53;46.24;99760.56;5088190;28;20023;-78
2022/01/09 09:10:25;;;;;;;10.15;3.80;;;;;;;12.70;45.84;99752.06;5090962;27;20505;-77
2022/01/09 09:12:50;;;;;;;24.88;6.57;;;;;;;12.89;45.17;99745.88;5090930;28;20352;-79
2022/01/09 09:15:19;;;;;;;14.13;2.85;;;;;;;12.39;46.25;99741.78;5089715;28;20047;-79
2022/01/09 09:17:46;;;;;;;13.80;3.50;;;;;;;12.80;45.46;99739.78;5090684;28;20107;-76
2022/01/09 09:20:12;;;;;;;14.82;4.68;;;;;;;12.95;45.09;99736.25;5090924;27;20043;-78
2022/01/09 09:22:38;;;;;;;16.13;4.80;;;;;;;12.99;44.92;99737.13;5088649;28;20024;-77
2022/01/09 09:25:04;;;;;;;12.50;3.85;;;;;;;13.27;44.27;99732.38;5091008;28;20039;-77
2022/01/09 09:27:32;;;;;;;14.27;3.42;;;;;;;13.10;44.84;99737.41;5090870;28;20099;-75
2022/01/09 09:30:00;;;;;;;12.40;4.20;;;;;;;12.94;45.26;99731.91;5088913;28;20149;-77
2022/01/09 09:32:25;;;;;;;16.92;3.92;;;;;;;13.17;44.50;99741.13;5089659;28;20028;-79
2022/01/09 09:34:51;;;;;;;21.42;4.32;;;;;;;12.81;45.43;99738.63;5089291;28;20040;-78
2022/01/09 09:37:17;;;;;;;14.25;3.78;;;;;;;13.10;44.93;99738.19;5084263;28;20026;-73
2022/01/09 09:39:42;;;;;;;15.02;3.05;;;;;;;12.69;45.81;99734.00;5079091;28;20033;-72
2022/01/09 09:42:09;;;;;;;16.42;3.80;;;;;;;12.48;46.48;99737.75;5090715;28;20545;-74
2022/01/09 09:44:36;;;;;;;13.43;3.00;;;;;;;12.65;46.22;99735.84;5078170;28;20458;-73
2022/01/09 09:47:04;;;;;;;18.10;3.53;;;;;;;12.84;45.91;99743.38;5086751;28;20090;-73
2022/01/09 09:49:31;;;;;;;16.38;3.13;;;;;;;12.59;46.61;99740.78;5094798;28;20478;-73
2022/01/09 09:51:57;;;;;;;21.92;3.92;;;;;;;12.96;45.90;99754.28;5093188;28;20090;-75
2022/01/09 09:54:25;;;;;;;13.10;3.30;;;;;;;13.04;45.55;99747.84;5094697;28;20020;-75
2022/01/09 09:56:52;;;;;;;9.73;3.17;;;;;;;12.95;45.73;99747.22;5091097;28;20086;-76
2022/01/09 09:59:35;;;;;;;16.40;3.80;;;;;;;13.12;45.37;99749.59;5086572;28;20036;-75
2022/01/09 10:02:07;;;;;;;12.27;3.47;;;;;;;13.04;45.54;99740.41;5092505;28;20041;-79
2022/01/09 10:04:32;;;;;;;17.48;3.35;;;;;;;13.15;45.56;99746.16;5092947;28;20036;-75
2022/01/09 10:06:58;;;;;;;19.00;4.53;;;;;;;13.30;45.25;99742.66;5095840;28;20145;-74
2022/01/09 10:09:24;;;;;;;17.30;4.03;;;;;;;13.13;45.70;99740.22;5095898;28;20028;-74
2022/01/09 10:12:01;;;;;;;15.60;4.05;;;;;;;13.08;46.02;99743.25;5094361;28;20028;-74
2022/01/09 10:14:33;;;;;;;15.98;4.00;;;;;;;12.95;46.16;99736.25;5094617;28;20035;-75
2022/01/09 10:17:16;;;;;;;15.60;4.18;;;;;;;13.19;45.67;99752.53;5092303;28;20064;-73
2022/01/09 10:19:55;;;;;;;9.40;3.38;;;;;;;13.07;46.11;99736.13;5092571;28;20069;-73
2022/01/09 10:22:44;;;;;;;14.60;2.97;;;;;;;12.90;46.62;99739.25;5092498;28;20032;-74
2022/01/09 10:25:26;;;;;;;14.65;3.33;;;;;;;13.31;45.47;99755.22;5088353;28;20045;-74
2022/01/09 10:28:20;;;;;;;7.75;3.20;;;;;;;13.08;46.04;99772.63;5093843;28;20040;-73
2022/01/09 10:30:49;;;;;;;16.65;3.45;;;;;;;13.29;45.40;99771.22;5086366;28;20044;-73
2022/01/09 10:33:17;;;;;;;13.80;2.92;;;;;;;13.09;46.10;99761.28;5093519;28;20107;-74
2022/01/09 10:35:45;;;;;;;12.23;3.83;;;;;;;13.29;45.55;99762.19;5092483;28;20020;-77
2022/01/09 10:38:27;;;;;;;18.10;5.57;;;;;;;13.12;45.98;99763.31;5093733;28;20036;-77
2022/01/09 10:40:58;;;;;;;19.77;4.75;;;;;;;13.50;45.15;99761.91;5094193;28;20056;-78
2022/01/09 10:43:48;;;;;;;13.52;4.03;;;;;;;13.53;45.22;99774.94;5093104;28;20043;-78
2022/01/09 10:46:13;;;;;;;14.77;5.00;;;;;;;13.24;45.94;99774.25;5099206;28;20032;-78
2022/01/09 10:48:43;;;;;;;16.05;4.75;;;;;;;13.56;45.70;99768.72;5083033;28;20032;-78
2022/01/09 10:51:12;;;;;;;17.65;4.03;;;;;;;13.63;45.36;99768.91;5084387;28;20027;-78
2022/01/09 10:53:39;;;;;;;14.80;3.75;;;;;;;13.71;45.19;99754.19;5085013;28;20028;-78
2022/01/09 10:56:05;;;;;;;22.73;3.83;;;;;;;13.68;45.42;99756.81;5087245;28;20107;-79
2022/01/09 10:58:34;;;;;;;19.92;4.28;;;;;;;13.94;44.89;99759.00;5083698;28;20169;-79
2022/01/09 11:01:32;;;;;;;14.60;3.63;;;;;;;13.59;45.35;99762.50;5084942;28;20108;-78
2022/01/09 11:04:07;;;;;;;19.42;5.00;;;;;;;13.99;45.25;99769.72;5084389;28;20040;-80
2022/01/09 11:06:39;;;;;;;19.73;4.85;;;;;;;14.26;44.40;99771.44;5083323;28;20450;-78
2022/01/09 11:09:05;;;;;;;15.50;3.80;;;;;;;14.02;44.93;99778.00;5082761;28;20435;-80
2022/01/09 11:11:36;;;;;;;12.95;4.00;;;;;;;14.37;43.99;99761.50;5081343;28;20039;-79
2022/01/09 11:14:05;;;;;;;19.33;4.55;;;;;;;14.50;43.95;99758.59;5080222;28;20077;-79
2022/01/09 11:16:32;;;;;;;16.55;4.07;;;;;;;14.19;44.38;99776.00;5083302;28;20020;-79
2022/01/09 11:19:00;;;;;;;13.43;4.10;;;;;;;14.58;43.98;99785.88;5095047;28;20030;-80
2022/01/09 11:21:27;;;;;;;13.85;3.88;;;;;;;14.65;43.52;99787.97;5093636;28;20086;-78
2022/01/09 11:24:02;;;;;;;17.33;5.28;;;;;;;14.55;43.86;99797.59;5094901;28;20363;-78
2022/01/09 11:26:49;;;;;;;11.32;3.92;;;;;;;14.77;43.53;99790.56;5094909;28;20052;-78
2022/01/09 11:29:19;;;;;;;15.38;4.22;;;;;;;15.05;42.95;99795.00;5094536;28;20089;-80